Time;durP1;ratioP1;P1;durP2;ratioP2;P2;SDS_P1;SDS_P2;PMS_P1;PMS_P2;Temp;Humidity;BMP_temperature;BMP_pressure;BME280_temperature;BME280_humidity;BME280_pressure;Samples;Min_cycle;Max_cycle;Signal;HPM_P1;HPM_P2
2022/03/02 00:04:08;;;;;;;8.97;4.93;;;;;;;-4.04;90.56;97619.06;10534696;28;20611;-60
2022/03/02 00:09:08;;;;;;;10.70;5.77;;;;;;;-4.03;91.20;97615.59;10534580;28;20708;-56
2022/03/02 00:14:09;;;;;;;15.37;7.97;;;;;;;-4.02;90.67;97609.63;10534925;28;20263;-58
2022/03/02 00:19:09;;;;;;;12.10;5.47;;;;;;;-4.22;92.29;97606.81;10534665;28;20732;-59
2022/03/02 00:24:10;;;;;;;14.93;7.87;;;;;;;-4.40;93.08;97611.53;10534847;28;20710;-61
2022/03/02 00:29:10;;;;;;;17.60;8.03;;;;;;;-4.38;93.20;97602.13;10534172;28;20710;-58
2022/03/02 00:34:11;;;;;;;17.80;8.80;;;;;;;-4.48;94.72;97600.69;10534361;28;20235;-60
2022/03/02 00:39:11;;;;;;;18.20;7.93;;;;;;;-4.45;94.79;97599.78;10534930;28;20797;-55
2022/03/02 00:44:13;;;;;;;16.83;8.37;;;;;;;-4.52;93.79;97593.97;10534102;28;20694;-60
2022/03/02 00:49:14;;;;;;;12.37;7.67;;;;;;;-4.50;94.26;97582.00;10534713;28;20225;-59
2022/03/02 00:54:14;;;;;;;11.87;6.63;;;;;;;-4.53;94.21;97580.34;10534116;28;20878;-60
2022/03/02 00:59:15;;;;;;;10.17;5.47;;;;;;;-4.53;94.32;97580.34;10534542;28;20613;-62
2022/03/02 01:04:15;;;;;;;17.77;6.73;;;;;;;-4.51;93.31;97577.75;10537273;28;20285;-62
2022/03/02 01:09:16;;;;;;;13.83;8.30;;;;;;;-4.58;93.19;97559.19;10541518;28;20223;-61
2022/03/02 01:14:16;;;;;;;15.90;8.37;;;;;;;-4.66;93.40;97559.38;10541710;28;20250;-58
2022/03/02 01:19:16;;;;;;;13.93;7.60;;;;;;;-4.73;94.51;97555.34;10541247;28;20186;-59
2022/03/02 01:24:17;;;;;;;14.93;7.40;;;;;;;-4.89;95.17;97547.22;10541285;28;20231;-58
2022/03/02 01:29:17;;;;;;;18.83;9.20;;;;;;;-4.91;96.21;97530.28;10540585;28;20220;-58
2022/03/02 01:34:17;;;;;;;9.87;5.47;;;;;;;-4.85;94.98;97527.56;10540703;28;20256;-61
2022/03/02 01:39:18;;;;;;;14.27;7.60;;;;;;;-4.87;95.59;97511.41;10540861;28;20217;-58
2022/03/02 01:44:19;;;;;;;15.83;8.23;;;;;;;-4.92;94.74;97508.97;10540134;28;20237;-62
2022/03/02 01:49:19;;;;;;;16.40;6.50;;;;;;;-4.85;94.22;97504.56;10540562;28;20218;-56
2022/03/02 01:54:20;;;;;;;20.13;8.50;;;;;;;-4.79;92.84;97506.06;10540002;28;20204;-61
2022/03/02 01:59:20;;;;;;;15.20;7.57;;;;;;;-4.85;93.49;97507.94;10539695;28;20185;-56
2022/03/02 02:04:20;;;;;;;24.20;10.43;;;;;;;-4.85;92.79;97499.44;10539429;28;20731;-60
2022/03/02 02:09:21;;;;;;;71.03;23.50;;;;;;;-4.92;92.42;97495.38;10539321;28;20229;-60
2022/03/02 02:14:21;;;;;;;11.57;6.70;;;;;;;-4.99;92.92;97499.81;10538440;28;20212;-60
2022/03/02 02:19:21;;;;;;;12.57;6.50;;;;;;;-5.00;93.78;97497.31;10539287;28;20260;-58
2022/03/02 02:24:24;;;;;;;15.80;8.47;;;;;;;-5.10;93.07;97501.78;10538408;28;20217;-56
2022/03/02 02:29:25;;;;;;;19.50;7.43;;;;;;;-5.16;93.63;97489.19;10537956;28;20305;-57
2022/03/02 02:34:25;;;;;;;12.10;6.37;;;;;;;-5.12;94.57;97483.97;10537911;28;20191;-56
2022/03/02 02:39:26;;;;;;;10.00;5.53;;;;;;;-5.09;93.02;97480.50;10537920;28;20184;-59
2022/03/02 02:44:27;;;;;;;11.70;6.90;;;;;;;-5.12;93.53;97478.84;10537928;28;20233;-55
2022/03/02 02:49:27;;;;;;;21.13;9.77;;;;;;;-5.32;94.53;97476.00;10537893;28;20226;-58
2022/03/02 02:54:28;;;;;;;24.03;11.83;;;;;;;-5.45;95.68;97485.66;10537853;28;20187;-57
2022/03/02 02:59:28;;;;;;;14.83;8.13;;;;;;;-5.52;96.18;97479.06;10537182;28;20326;-54
2022/03/02 03:04:29;;;;;;;12.67;6.80;;;;;;;-5.54;97.15;97466.34;10537466;28;20190;-59
2022/03/02 03:09:29;;;;;;;15.27;6.90;;;;;;;-5.50;96.29;97455.16;10537161;28;20267;-58
2022/03/02 03:14:29;;;;;;;11.70;5.80;;;;;;;-5.49;96.68;97449.19;10536954;28;20303;-60
2022/03/02 03:19:30;;;;;;;14.37;6.10;;;;;;;-5.49;95.46;97451.72;10536998;28;20193;-57
2022/03/02 03:24:30;;;;;;;12.20;5.63;;;;;;;-5.49;96.14;97446.63;10536395;28;20191;-55
2022/03/02 03:29:30;;;;;;;12.20;7.60;;;;;;;-5.48;95.62;97450.88;10536011;28;20223;-59
2022/03/02 03:34:31;;;;;;;12.60;6.43;;;;;;;-5.53;95.55;97442.47;10536410;28;20194;-56
2022/03/02 03:39:31;;;;;;;15.13;6.80;;;;;;;-5.55;95.00;97445.06;10535761;28;20183;-57
2022/03/02 03:44:32;;;;;;;13.83;6.80;;;;;;;-5.56;95.41;97437.44;10535814;28;20225;-58
2022/03/02 03:49:32;;;;;;;12.77;5.37;;;;;;;-5.53;95.66;97428.88;10535361;28;20576;-61
2022/03/02 03:54:32;;;;;;;13.33;7.83;;;;;;;-5.63;95.01;97418.06;10535385;28;20199;-61
2022/03/02 03:59:33;;;;;;;9.97;5.67;;;;;;;-5.58;94.97;97413.69;10534721;28;20196;-60
2022/03/02 04:04:34;;;;;;;7.40;3.73;;;;;;;-5.55;95.07;97416.16;10512478;28;20187;-61
2022/03/02 04:09:34;;;;;;;7.27;3.83;;;;;;;-5.55;94.27;97405.94;10493159;28;20233;-61
2022/03/02 04:14:34;;;;;;;13.57;7.00;;;;;;;-5.69;94.36;97405.47;10492760;28;20683;-61
2022/03/02 04:19:35;;;;;;;10.27;4.87;;;;;;;-5.66;95.16;97402.84;10493214;28;20608;-61
2022/03/02 04:24:35;;;;;;;13.00;5.67;;;;;;;-5.58;94.66;97398.38;10492703;28;20197;-61
2022/03/02 04:29:36;;;;;;;14.43;6.10;;;;;;;-5.61;94.34;97393.34;10492424;28;20224;-59
2022/03/02 04:34:36;;;;;;;10.60;6.23;;;;;;;-5.59;94.34;97392.44;10492798;28;20193;-54
2022/03/02 04:39:36;;;;;;;14.67;6.00;;;;;;;-5.52;94.81;97400.75;10496507;28;20206;-57
2022/03/02 04:44:37;;;;;;;7.93;4.50;;;;;;;-5.58;94.81;97401.75;10500779;28;20203;-55
2022/03/02 04:49:37;;;;;;;12.37;5.50;;;;;;;-5.66;94.98;97395.19;10500020;28;20715;-57
2022/03/02 04:59:56;;;;;;;10.10;5.40;;;;;;;-5.58;94.27;97378.78;10499707;28;20234;-55
2022/03/02 05:04:57;;;;;;;12.13;5.33;;;;;;;-5.62;93.23;97384.84;10496191;28;20201;-56
2022/03/02 05:09:57;;;;;;;12.70;5.40;;;;;;;-5.63;94.80;97384.91;10499810;28;20264;-59
2022/03/02 05:14:57;;;;;;;9.30;4.50;;;;;;;-5.57;93.24;97379.63;10500041;28;20184;-56
2022/03/02 05:19:58;;;;;;;9.50;5.90;;;;;;;-5.55;92.87;97382.97;10499601;28;20239;-59
2022/03/02 05:24:58;;;;;;;10.33;5.07;;;;;;;-5.49;92.67;97382.81;10499791;28;20187;-56
2022/03/02 05:29:59;;;;;;;8.07;3.97;;;;;;;-5.43;91.94;97381.81;10496059;28;20657;-59
2022/03/02 05:34:59;;;;;;;5.27;3.30;;;;;;;-5.44;91.67;97380.94;10496186;28;20732;-56
2022/03/02 05:40:20;;;;;;;9.63;5.80;;;;;;;-5.37;91.50;97372.25;10498593;28;20205;-56
2022/03/02 05:45:21;;;;;;;11.67;4.30;;;;;;;-5.41;92.21;97391.09;10498985;28;20202;-54
2022/03/02 05:50:21;;;;;;;8.77;4.23;;;;;;;-5.51;93.43;97397.34;10496844;28;20220;-60
2022/03/02 05:55:21;;;;;;;3.50;2.77;;;;;;;-5.37;91.87;97400.34;10480542;28;20197;-55
2022/03/02 06:00:22;;;;;;;5.43;3.90;;;;;;;-5.40;92.04;97386.84;10498040;28;20228;-55
2022/03/02 06:05:22;;;;;;;12.17;4.63;;;;;;;-5.35;92.51;97392.63;10518902;22;20232;-63
2022/03/02 06:10:23;;;;;;;11.80;5.03;;;;;;;-5.26;91.65;97373.69;10497369;28;20227;-63
2022/03/02 06:15:24;;;;;;;11.77;4.63;;;;;;;-5.18;91.99;97379.41;10497437;28;20213;-62
2022/03/02 06:20:24;;;;;;;7.13;3.73;;;;;;;-5.16;90.95;97379.38;10497603;28;20926;-57
2022/03/02 06:25:25;;;;;;;11.27;5.20;;;;;;;-5.04;90.65;97374.75;10496722;28;20203;-59
2022/03/02 06:30:25;;;;;;;10.37;4.87;;;;;;;-5.08;90.47;97372.34;10492318;28;20225;-57
2022/03/02 06:35:26;;;;;;;9.60;5.20;;;;;;;-5.07;90.41;97372.28;10492792;28;20209;-56
2022/03/02 06:40:26;;;;;;;8.90;4.93;;;;;;;-5.05;90.87;97369.69;10492141;28;20193;-60
2022/03/02 06:45:37;;;;;;;11.67;5.60;;;;;;;-4.97;90.86;97369.47;10493687;28;20605;-61
2022/03/02 06:50:39;;;;;;;11.07;5.00;;;;;;;-4.85;89.45;97374.22;10495423;28;20225;-61
2022/03/02 06:55:41;;;;;;;5.93;3.80;;;;;;;-4.68;88.72;97363.50;10477982;28;20220;-60
2022/03/02 07:00:49;;;;;;;8.03;3.87;;;;;;;-4.68;88.30;97364.31;10494560;28;20865;-61
2022/03/02 07:05:50;;;;;;;9.20;5.00;;;;;;;-4.55;88.29;97384.41;10469317;28;20234;-60
2022/03/02 07:10:51;;;;;;;6.77;4.77;;;;;;;-4.31;88.32;97370.84;10470833;28;20218;-59
2022/03/02 07:15:52;;;;;;;11.40;8.17;;;;;;;-4.34;88.62;97365.81;10490322;28;20215;-61
2022/03/02 07:20:56;;;;;;;12.13;5.63;;;;;;;-3.95;87.35;97357.75;10490175;28;20198;-58
2022/03/02 07:25:59;;;;;;;14.97;6.93;;;;;;;-3.60;84.88;97319.03;10472612;28;20203;-61
2022/03/02 07:31:00;;;;;;;12.07;5.47;;;;;;;-3.37;83.96;97317.38;10490500;28;20226;-60
2022/03/02 07:36:01;;;;;;;28.20;8.90;;;;;;;-3.14;83.80;97306.28;10491823;28;20830;-56
2022/03/02 07:41:10;;;;;;;33.73;10.23;;;;;;;-2.85;82.89;97309.47;10492238;28;20284;-58
2022/03/02 07:46:11;;;;;;;36.87;11.33;;;;;;;-2.85;82.33;97307.72;10490955;28;20685;-59
2022/03/02 07:51:11;;;;;;;28.00;9.77;;;;;;;-2.49;81.58;97312.31;10489149;28;20219;-57
2022/03/02 07:56:14;;;;;;;14.50;5.73;;;;;;;-1.96;78.69;97272.53;10478997;28;20216;-58
2022/03/02 08:01:20;;;;;;;14.33;6.37;;;;;;;-1.78;78.84;97277.78;10489629;28;20187;-59
2022/03/02 08:06:20;;;;;;;15.00;7.03;;;;;;;-1.58;77.85;97269.19;10488743;28;20203;-57
2022/03/02 08:11:21;;;;;;;31.53;13.87;;;;;;;-1.46;77.46;97269.47;10488654;28;20226;-61
2022/03/02 08:16:21;;;;;;;36.97;12.03;;;;;;;-1.30;76.52;97258.53;10488815;28;20195;-60
2022/03/02 08:21:23;;;;;;;28.97;11.87;;;;;;;-1.39;76.97;97262.34;10498417;28;20198;-62
2022/03/02 08:26:25;;;;;;;29.30;12.53;;;;;;;-1.37;76.69;97267.41;10481613;28;20195;-62
2022/03/02 08:31:25;;;;;;;24.17;9.70;;;;;;;-1.32;77.06;97256.03;10498448;28;20226;-60
2022/03/02 08:36:28;;;;;;;30.83;11.87;;;;;;;-1.09;76.19;97246.41;10499248;28;20565;-59
2022/03/02 08:41:28;;;;;;;18.67;8.13;;;;;;;-0.30;73.05;97191.19;10498865;28;20194;-63
2022/03/02 08:46:29;;;;;;;9.23;5.40;;;;;;;0.01;70.24;97144.09;10499133;28;20192;-61
2022/03/02 08:51:30;;;;;;;12.50;6.20;;;;;;;0.66;69.76;97153.53;10498239;28;20715;-63
2022/03/02 08:56:35;;;;;;;12.37;5.77;;;;;;;1.59;66.13;97087.16;10499030;28;20205;-61
2022/03/02 09:01:40;;;;;;;9.37;5.07;;;;;;;2.62;61.35;97007.56;10497460;28;20275;-62
2022/03/02 09:06:40;;;;;;;9.63;5.90;;;;;;;2.68;59.87;96992.50;10497371;28;20194;-65
2022/03/02 09:11:43;;;;;;;9.77;5.97;;;;;;;4.14;57.36;96964.50;10497655;28;20227;-63
2022/03/02 09:16:44;;;;;;;11.00;6.37;;;;;;;4.92;53.13;96878.25;10497580;28;20196;-59
2022/03/02 09:21:45;;;;;;;12.90;5.90;;;;;;;4.88;52.95;96907.97;10497875;28;20218;-59
2022/03/02 09:26:45;;;;;;;14.47;7.40;;;;;;;5.36;51.66;96876.59;10462071;28;20207;-64
2022/03/02 09:31:50;;;;;;;11.90;7.20;;;;;;;6.76;51.04;96913.16;10459701;28;20219;-64
2022/03/02 09:36:50;;;;;;;11.57;6.83;;;;;;;7.78;46.71;96824.50;10492418;28;20282;-64
2022/03/02 09:41:59;;;;;;;10.77;6.47;;;;;;;9.52;41.79;96759.78;10474553;28;20207;-64
2022/03/02 09:47:00;;;;;;;11.93;7.03;;;;;;;8.91;38.59;96650.56;10492075;28;20233;-64
2022/03/02 09:52:06;;;;;;;10.13;6.55;;;;;;;8.73;38.37;96658.38;10491610;28;20223;-63
2022/03/02 09:57:08;;;;;;;9.70;6.73;;;;;;;6.98;40.00;96682.97;10484189;28;20309;-59
2022/03/02 10:02:10;;;;;;;9.67;5.80;;;;;;;8.89;39.20;96730.84;10481723;28;20330;-62
2022/03/02 10:07:26;;;;;;;11.43;6.63;;;;;;;10.53;38.70;96775.19;10491537;28;20635;-63
2022/03/02 10:12:29;;;;;;;10.98;6.97;;;;;;;12.02;36.70;96735.31;10476985;28;20245;-64
2022/03/02 10:17:36;;;;;;;12.50;7.55;;;;;;;12.77;35.90;96739.44;10492160;28;20669;-60
2022/03/02 10:22:39;;;;;;;10.20;7.40;;;;;;;12.49;35.03;96707.47;10491516;28;20692;-62
2022/03/02 10:28:00;;;;;;;9.55;6.70;;;;;;;12.25;36.29;96732.00;10490739;28;20211;-62
2022/03/02 10:33:16;;;;;;;9.63;6.40;;;;;;;11.99;35.20;96698.03;10491783;28;20740;-62
2022/03/02 10:38:23;;;;;;;9.52;6.30;;;;;;;12.88;34.55;96703.22;10473547;28;20187;-62
2022/03/02 10:43:24;;;;;;;10.38;6.47;;;;;;;12.28;34.22;96676.50;10472736;28;20218;-63
2022/03/02 10:48:28;;;;;;;9.23;6.07;;;;;;;12.45;34.71;96708.78;10472798;28;20187;-65
2022/03/02 10:53:30;;;;;;;9.40;5.45;;;;;;;12.99;32.54;96652.91;10473385;28;20323;-62
2022/03/02 10:58:31;;;;;;;10.02;5.80;;;;;;;12.92;31.75;96623.03;10490309;28;20195;-61
2022/03/02 11:03:36;;;;;;;6.38;5.00;;;;;;;13.07;30.53;96576.56;10489804;28;20231;-62
2022/03/02 11:08:38;;;;;;;7.30;5.47;;;;;;;13.56;30.73;96607.78;10499540;28;20187;-63
2022/03/02 11:13:38;;;;;;;9.90;6.00;;;;;;;12.72;30.71;96557.75;10499777;28;20693;-63
2022/03/02 11:18:41;;;;;;;13.48;6.57;;;;;;;12.13;33.04;96632.56;10490264;28;20203;-62
2022/03/02 11:23:45;;;;;;;10.68;6.53;;;;;;;12.99;33.78;96701.03;10489423;28;20246;-62
2022/03/02 11:28:48;;;;;;;9.57;6.00;;;;;;;13.35;31.32;96611.09;10489192;28;20194;-62
2022/03/02 11:33:49;;;;;;;8.88;5.60;;;;;;;13.64;31.25;96632.41;10480056;28;20206;-62
2022/03/02 11:38:54;;;;;;;10.18;6.13;;;;;;;14.79;30.23;96628.56;10483970;28;20191;-62
2022/03/02 11:43:54;;;;;;;9.00;6.30;;;;;;;14.36;30.47;96602.06;10488357;28;20301;-63
2022/03/02 11:48:55;;;;;;;9.70;6.25;;;;;;;14.62;30.76;96644.59;10485425;28;20223;-64
2022/03/02 11:53:58;;;;;;;11.52;6.40;;;;;;;14.15;30.82;96613.31;10492088;28;20207;-63
2022/03/02 11:58:59;;;;;;;11.55;6.65;;;;;;;15.59;29.93;96618.81;10492371;28;20195;-61
2022/03/02 12:04:01;;;;;;;13.63;7.25;;;;;;;12.69;33.25;96630.88;10504728;22;20235;-62
2022/03/02 12:09:01;;;;;;;15.68;7.78;;;;;;;13.97;32.79;96655.84;10492107;28;20685;-61
2022/03/02 12:14:04;;;;;;;12.25;7.55;;;;;;;12.83;35.23;96686.19;10490743;28;20207;-60
2022/03/02 12:19:05;;;;;;;10.88;7.75;;;;;;;13.88;32.70;96647.19;10514128;28;20187;-62
2022/03/02 12:24:05;;;;;;;11.85;7.60;;;;;;;14.33;32.38;96652.47;10533412;28;20246;-63
2022/03/02 12:29:10;;;;;;;11.20;7.00;;;;;;;14.76;31.99;96644.75;10532888;28;20776;-63
2022/03/02 12:34:12;;;;;;;10.40;7.00;;;;;;;12.45;34.19;96640.47;10533504;28;20211;-62
2022/03/02 12:39:12;;;;;;;10.57;7.78;;;;;;;13.50;35.43;96719.03;10533096;28;20191;-62
2022/03/02 12:44:13;;;;;;;11.35;7.82;;;;;;;14.41;33.95;96703.31;10533117;28;20215;-63
2022/03/02 12:49:13;;;;;;;11.38;8.38;;;;;;;14.54;33.74;96697.38;10510268;28;20219;-64
2022/03/02 12:54:13;;;;;;;12.68;8.88;;;;;;;14.06;34.34;96695.06;10490953;28;20217;-62
2022/03/02 12:59:14;;;;;;;10.45;7.63;;;;;;;15.09;33.93;96712.94;10492893;28;20187;-63
2022/03/02 13:04:22;;;;;;;14.85;8.48;;;;;;;15.04;33.37;96699.44;10498415;28;20238;-64
2022/03/02 13:09:26;;;;;;;13.30;8.93;;;;;;;13.63;34.77;96686.03;10496986;28;20643;-62
2022/03/02 13:14:31;;;;;;;13.85;8.60;;;;;;;15.40;32.54;96674.88;10496787;28;20223;-64
2022/03/02 13:19:43;;;;;;;12.68;8.70;;;;;;;15.78;31.89;96650.91;10496916;28;20655;-63
2022/03/02 13:24:45;;;;;;;11.45;8.32;;;;;;;14.78;33.85;96679.69;10497558;28;20766;-63
2022/03/02 13:29:52;;;;;;;12.88;7.72;;;;;;;15.38;32.18;96637.31;10497496;28;20214;-62
2022/03/02 13:35:05;;;;;;;17.40;8.50;;;;;;;14.59;33.29;96658.13;10497353;28;20766;-61
2022/03/02 13:40:06;;;;;;;12.23;8.98;;;;;;;13.89;34.10;96654.91;10496535;28;20186;-61
2022/03/02 13:45:08;;;;;;;18.38;9.23;;;;;;;13.71;34.55;96657.03;10484880;28;20213;-59
2022/03/02 13:50:12;;;;;;;12.10;8.77;;;;;;;14.22;34.34;96680.91;10494791;28;20281;-61
2022/03/02 13:55:12;;;;;;;14.75;8.88;;;;;;;13.76;35.29;96681.00;10491033;28;20211;-59
2022/03/02 14:00:19;;;;;;;15.05;9.98;;;;;;;13.39;36.47;96716.81;10496155;28;20214;-61
2022/03/02 14:05:22;;;;;;;16.02;10.55;;;;;;;12.99;35.52;96664.22;10488027;28;20789;-61
2022/03/02 14:10:22;;;;;;;14.27;9.13;;;;;;;14.51;33.66;96675.84;10495158;28;20230;-61
2022/03/02 14:15:27;;;;;;;21.30;9.40;;;;;;;15.52;31.63;96634.59;10495789;28;20311;-62
2022/03/02 14:20:30;;;;;;;14.55;9.70;;;;;;;14.08;33.80;96640.38;10495426;28;20704;-61
2022/03/02 14:25:34;;;;;;;16.48;9.73;;;;;;;14.18;32.28;96590.06;10487939;28;20215;-62
2022/03/02 14:30:36;;;;;;;19.48;10.48;;;;;;;15.15;31.65;96622.47;10494488;28;20665;-63
2022/03/02 14:35:37;;;;;;;13.27;9.25;;;;;;;14.56;31.73;96589.94;10494872;28;20306;-63
2022/03/02 14:40:44;;;;;;;13.45;9.13;;;;;;;14.44;32.88;96625.66;10494526;28;20303;-59
2022/03/02 14:45:49;;;;;;;17.17;8.63;;;;;;;14.51;31.77;96594.94;10494590;28;20207;-61
2022/03/02 14:50:57;;;;;;;12.73;8.45;;;;;;;13.50;33.00;96587.44;10493704;28;20383;-59
2022/03/02 14:56:01;;;;;;;12.93;8.38;;;;;;;14.64;31.22;96578.50;10499087;28;20332;-61
2022/03/02 15:01:21;;;;;;;11.68;8.38;;;;;;;14.25;31.27;96563.81;10493839;28;20262;-60
2022/03/02 15:06:29;;;;;;;12.73;8.55;;;;;;;16.14;29.20;96552.13;10492080;28;20242;-62
2022/03/02 15:11:38;;;;;;;10.93;8.30;;;;;;;16.44;28.31;96528.09;10494273;28;20183;-59
2022/03/02 15:16:42;;;;;;;11.45;8.23;;;;;;;16.90;27.34;96493.81;10498826;28;20211;-61
2022/03/02 15:21:44;;;;;;;13.38;8.10;;;;;;;17.35;26.57;96471.22;10534344;28;20637;-61
2022/03/02 15:26:49;;;;;;;8.70;6.68;;;;;;;19.50;24.80;96466.53;10537050;28;20588;-60
2022/03/02 15:31:54;;;;;;;15.32;8.48;;;;;;;20.33;23.51;96443.91;10495285;28;20187;-61
2022/03/02 15:37:00;;;;;;;9.13;6.97;;;;;;;19.84;23.82;96405.88;10492968;28;20907;-61
2022/03/02 15:42:05;;;;;;;9.77;6.80;;;;;;;20.54;23.35;96418.66;10492320;28;20586;-59
2022/03/02 15:47:05;;;;;;;8.52;6.55;;;;;;;18.12;24.49;96366.25;10492931;28;20264;-61
2022/03/02 15:52:08;;;;;;;13.18;8.20;;;;;;;14.71;27.68;96362.38;10492065;28;20244;-60
2022/03/02 15:57:08;;;;;;;9.80;6.70;;;;;;;12.24;30.67;96402.06;10491303;28;20237;-62
2022/03/02 16:02:28;;;;;;;8.45;6.50;;;;;;;10.26;33.28;96449.69;10490252;28;20308;-59
2022/03/02 16:07:28;;;;;;;8.55;5.93;;;;;;;9.28;34.51;96471.84;10490722;28;20199;-57
2022/03/02 16:12:45;;;;;;;13.18;7.15;;;;;;;8.27;35.57;96482.59;10491626;28;20200;-61
2022/03/02 16:17:48;;;;;;;9.33;5.90;;;;;;;7.95;35.91;96502.16;10491616;28;20187;-58
2022/03/02 16:22:50;;;;;;;17.60;7.73;;;;;;;6.92;38.54;96568.94;10491610;28;20215;-56
2022/03/02 16:27:57;;;;;;;9.97;6.77;;;;;;;6.48;41.10;96623.97;10491132;28;20257;-56
2022/03/02 16:32:59;;;;;;;24.03;12.53;;;;;;;4.95;43.79;96665.16;10489999;28;20203;-58
2022/03/02 16:38:01;;;;;;;25.50;14.87;;;;;;;3.54;47.45;96763.13;10499088;28;20211;-56
2022/03/02 16:43:01;;;;;;;15.63;8.50;;;;;;;3.32;49.99;96849.31;10497621;28;20223;-58
2022/03/02 16:48:02;;;;;;;14.07;8.87;;;;;;;1.74;52.53;96900.28;10499129;28;20563;-60
2022/03/02 16:53:04;;;;;;;13.00;7.20;;;;;;;1.51;54.91;96961.13;10499322;28;20206;-58
2022/03/02 16:58:04;;;;;;;18.10;8.80;;;;;;;1.31;55.98;96982.97;10499031;28;20679;-57
2022/03/02 17:03:04;;;;;;;24.10;10.13;;;;;;;0.85;59.31;97050.19;10498886;28;20241;-61
2022/03/02 17:08:05;;;;;;;22.67;11.33;;;;;;;0.49;61.06;97059.91;10496244;28;20190;-54
2022/03/02 17:13:05;;;;;;;23.27;10.97;;;;;;;0.25;63.51;97082.72;10486999;28;20636;-56
2022/03/02 17:18:06;;;;;;;17.77;9.37;;;;;;;-0.03;65.69;97091.06;10486869;28;20310;-55
2022/03/02 17:23:06;;;;;;;20.83;9.93;;;;;;;-0.19;67.06;97080.75;10506983;28;20221;-57
2022/03/02 17:28:07;;;;;;;14.53;6.73;;;;;;;-0.29;67.61;97072.69;10537787;28;20653;-60
2022/03/02 17:33:08;;;;;;;20.03;10.10;;;;;;;-0.55;68.71;97067.16;10537669;28;20213;-60
2022/03/02 17:38:08;;;;;;;16.30;7.90;;;;;;;-0.65;69.61;97060.00;10536198;28;20260;-59
2022/03/02 17:43:08;;;;;;;41.27;17.70;;;;;;;-0.83;69.22;97056.59;10482896;28;20646;-60
2022/03/02 17:48:09;;;;;;;27.23;13.67;;;;;;;-1.03;70.11;97048.13;10497753;28;20199;-58
2022/03/02 17:53:09;;;;;;;17.67;9.30;;;;;;;-1.23;70.31;97043.97;10498344;28;20273;-56
2022/03/02 17:58:10;;;;;;;16.90;8.73;;;;;;;-1.39;71.46;97032.78;10497644;28;20223;-54
2022/03/02 18:03:10;;;;;;;22.80;11.00;;;;;;;-1.57;71.41;97040.50;10518190;22;20304;-59
2022/03/02 18:08:11;;;;;;;17.27;6.77;;;;;;;-1.71;72.25;97033.44;10496956;28;20203;-61
2022/03/02 18:13:11;;;;;;;18.97;7.73;;;;;;;-1.76;71.77;97027.69;10474097;28;20210;-59
2022/03/02 18:18:11;;;;;;;10.17;5.67;;;;;;;-1.83;72.32;97022.00;10454522;28;20215;-60
2022/03/02 18:23:12;;;;;;;19.40;9.50;;;;;;;-1.97;72.91;97021.84;10454336;28;20226;-61
2022/03/02 18:28:13;;;;;;;27.77;12.57;;;;;;;-2.08;73.18;97040.28;10451168;28;20184;-61
2022/03/02 18:33:15;;;;;;;53.70;22.30;;;;;;;-2.14;73.58;97035.44;10454529;28;20203;-59
2022/03/02 18:38:15;;;;;;;25.50;12.20;;;;;;;-2.17;73.49;97044.09;10454282;28;20199;-60
2022/03/02 18:43:16;;;;;;;17.50;10.03;;;;;;;-2.21;74.35;97050.28;10453885;28;20729;-59
2022/03/02 18:48:17;;;;;;;19.27;10.23;;;;;;;-2.34;74.92;97055.13;10454294;28;20188;-60
2022/03/02 18:53:17;;;;;;;32.93;16.70;;;;;;;-2.39;75.41;97053.66;10453577;28;20220;-61
2022/03/02 18:58:18;;;;;;;23.70;9.20;;;;;;;-2.52;74.98;97058.50;10453108;28;20219;-59
2022/03/02 19:03:19;;;;;;;18.33;10.20;;;;;;;-2.51;75.13;97058.44;10453380;28;20247;-61
2022/03/02 19:08:19;;;;;;;14.00;7.77;;;;;;;-2.45;75.03;97061.63;10453075;28;20191;-60
2022/03/02 19:13:19;;;;;;;13.13;7.80;;;;;;;-2.55;75.00;97062.03;10453437;28;20210;-60
2022/03/02 19:18:23;;;;;;;15.87;8.57;;;;;;;-2.63;75.30;97076.13;10452914;28;20195;-60
2022/03/02 19:23:25;;;;;;;16.87;8.40;;;;;;;-2.73;75.92;97071.34;10452258;28;20285;-61
2022/03/02 19:28:28;;;;;;;13.93;7.93;;;;;;;-2.83;77.53;97087.19;10452700;28;20206;-59
2022/03/02 19:33:28;;;;;;;11.77;6.03;;;;;;;-2.83;77.33;97070.09;10452304;28;20211;-59
2022/03/02 19:43:48;;;;;;;15.27;6.93;;;;;;;-2.90;78.16;97074.63;10452052;28;20227;-60
2022/03/02 19:48:49;;;;;;;16.50;7.83;;;;;;;-2.91;78.05;97070.41;10452174;28;20204;-59
2022/03/02 19:53:51;;;;;;;11.00;5.73;;;;;;;-2.86;77.71;97067.66;10451551;28;20250;-60
2022/03/02 19:58:51;;;;;;;13.07;7.40;;;;;;;-2.92;77.79;97068.75;10451645;28;20658;-60
2022/03/02 20:03:52;;;;;;;16.33;7.67;;;;;;;-3.03;78.18;97053.00;10451304;28;20308;-60
2022/03/02 20:08:53;;;;;;;16.20;7.27;;;;;;;-2.99;78.21;97051.13;10450673;28;20188;-60
2022/03/02 20:13:53;;;;;;;12.47;6.50;;;;;;;-3.09;78.84;97055.81;10451484;28;20284;-60
2022/03/02 20:18:54;;;;;;;11.03;6.03;;;;;;;-3.07;78.25;97052.28;10451284;28;20287;-61
2022/03/02 20:23:54;;;;;;;16.80;6.47;;;;;;;-3.16;79.19;97049.28;10451067;28;20223;-60
2022/03/02 20:28:54;;;;;;;13.63;7.90;;;;;;;-3.21;80.08;97062.28;10451121;28;20654;-59
2022/03/02 20:33:55;;;;;;;18.07;8.73;;;;;;;-3.27;80.21;97055.66;10450973;28;20291;-61
2022/03/02 20:38:55;;;;;;;17.43;8.87;;;;;;;-3.30;80.61;97050.66;10450685;28;20206;-61
2022/03/02 20:43:56;;;;;;;16.77;8.23;;;;;;;-3.42;81.33;97051.16;10450755;28;20226;-61
2022/03/02 20:48:56;;;;;;;13.47;6.83;;;;;;;-3.44;81.51;97046.09;10450865;28;20220;-60
2022/03/02 20:53:56;;;;;;;10.80;6.97;;;;;;;-3.42;81.98;97049.44;10450775;28;20236;-60
2022/03/02 20:58:57;;;;;;;17.57;8.67;;;;;;;-3.52;82.56;97043.03;10450631;28;20203;-60
2022/03/02 21:03:57;;;;;;;16.17;7.83;;;;;;;-3.48;82.32;97047.09;10450210;28;20300;-58
2022/03/02 21:08:58;;;;;;;14.10;8.20;;;;;;;-3.43;82.17;97034.97;10450140;28;20198;-59
2022/03/02 21:13:58;;;;;;;17.60;8.30;;;;;;;-3.48;82.87;97041.16;10450268;28;20289;-59
2022/03/02 21:18:59;;;;;;;15.97;7.13;;;;;;;-3.53;83.31;97031.09;10450269;28;20255;-58
2022/03/02 21:24:00;;;;;;;14.10;8.27;;;;;;;-3.54;84.17;97033.72;10457483;28;20582;-61
2022/03/02 21:29:01;;;;;;;17.00;9.00;;;;;;;-3.63;84.40;97035.78;10457788;28;20200;-60
2022/03/02 21:34:01;;;;;;;20.43;9.43;;;;;;;-3.67;85.24;97036.78;10457228;28;20225;-60
2022/03/02 21:39:02;;;;;;;16.03;7.23;;;;;;;-3.65;85.97;97040.09;10457184;28;20298;-59
2022/03/02 21:44:02;;;;;;;14.53;7.00;;;;;;;-3.70;86.21;97029.22;10456898;28;20218;-60
2022/03/02 21:49:03;;;;;;;17.80;9.33;;;;;;;-3.76;87.09;97020.06;10450801;28;20195;-58
2022/03/02 21:54:03;;;;;;;16.13;8.63;;;;;;;-3.73;87.01;97024.22;10450780;28;20204;-58
2022/03/02 21:59:04;;;;;;;15.40;7.70;;;;;;;-3.76;87.42;97016.66;10456850;28;20203;-61
2022/03/02 22:04:04;;;;;;;23.67;8.70;;;;;;;-3.80;87.91;97015.13;10456383;28;20239;-59
2022/03/02 22:09:04;;;;;;;12.50;8.03;;;;;;;-3.80;88.76;97022.78;10455872;28;20237;-60
2022/03/02 22:14:05;;;;;;;18.97;9.00;;;;;;;-3.80;88.69;97013.41;10456162;28;20203;-57
2022/03/02 22:19:05;;;;;;;18.37;10.47;;;;;;;-3.92;88.68;97021.56;10456064;28;20194;-57
2022/03/02 22:24:06;;;;;;;13.07;7.60;;;;;;;-3.94;89.07;97020.78;10455596;28;20268;-60
2022/03/02 22:29:07;;;;;;;19.33;8.13;;;;;;;-3.97;89.59;97008.91;10455866;28;20222;-59
2022/03/02 22:34:07;;;;;;;12.27;6.50;;;;;;;-3.99;90.34;96999.66;10454336;28;20222;-61
2022/03/02 22:39:08;;;;;;;12.53;7.83;;;;;;;-3.95;90.66;97003.78;10454983;28;20637;-61
2022/03/02 22:44:09;;;;;;;16.03;7.07;;;;;;;-3.92;89.81;97002.81;10452583;28;20215;-55
2022/03/02 22:49:09;;;;;;;17.87;8.97;;;;;;;-3.99;90.63;96999.66;10455520;28;20201;-60
2022/03/02 22:54:10;;;;;;;14.80;8.97;;;;;;;-4.08;90.74;97008.53;10455867;28;20243;-61
2022/03/02 22:59:12;;;;;;;20.07;9.73;;;;;;;-4.06;90.98;97016.13;10454551;28;20197;-61
2022/03/02 23:14:50;;;;;;;14.40;6.23;;;;;;;-4.20;91.38;97009.00;10495007;28;20217;-60
2022/03/02 23:19:51;;;;;;;13.83;7.67;;;;;;;-4.31;92.30;97002.53;10494522;28;20198;-59
2022/03/02 23:24:51;;;;;;;17.80;6.97;;;;;;;-4.35;94.07;96989.94;10494293;28;20220;-60
2022/03/02 23:29:52;;;;;;;17.43;8.93;;;;;;;-4.38;94.28;96975.56;10494184;28;20213;-59
2022/03/02 23:34:52;;;;;;;16.67;8.07;;;;;;;-4.40;93.72;96985.00;10493959;28;20729;-61